createdAt,value
2019-04-14T00:02:38.285Z,102.92
2019-04-14T00:05:12.542Z,102.87
2019-04-14T00:07:42.844Z,101.58
2019-04-14T00:10:13.927Z,100.20
2019-04-14T00:12:44.860Z,99.03
2019-04-14T00:15:38.624Z,101.92
2019-04-14T00:18:23.017Z,95.97
2019-04-14T00:21:11.117Z,96.15
2019-04-14T00:23:59.322Z,93.80
2019-04-14T00:26:48.773Z,95.60
2019-04-14T00:29:37.173Z,95.62
2019-04-14T00:32:26.872Z,93.30
2019-04-14T00:35:25.576Z,92.37
2019-04-14T00:38:19.822Z,93.45
2019-04-14T00:41:40.293Z,92.08
2019-04-14T00:44:38.686Z,90.47
2019-04-14T00:47:31.168Z,93.15
2019-04-14T00:50:19.572Z,91.63
2019-04-14T00:53:07.766Z,87.78
2019-04-14T00:55:55.873Z,90.72
2019-04-14T00:58:43.675Z,84.65
2019-04-14T01:01:31.428Z,86.60
2019-04-14T01:04:19.309Z,84.50
2019-04-14T01:07:08.658Z,86.45
2019-04-14T01:09:57.543Z,84.45
2019-04-14T01:12:45.689Z,83.47
2019-04-14T01:15:15.999Z,84.60
2019-04-14T01:17:46.303Z,82.47
2019-04-14T01:20:16.970Z,85.20
2019-04-14T01:22:47.253Z,81.47
2019-04-14T01:25:17.594Z,81.32
2019-04-14T01:27:47.905Z,79.95
2019-04-14T01:30:18.137Z,81.28
2019-04-14T01:32:48.440Z,80.38
2019-04-14T01:35:20.313Z,76.65
2019-04-14T01:37:50.786Z,80.45
2019-04-14T01:40:21.176Z,76.60
2019-04-14T01:42:52.671Z,76.55
2019-04-14T01:45:23.242Z,73.80
2019-04-14T01:47:53.604Z,72.80
2019-04-14T01:50:32.683Z,75.83
2019-04-14T01:53:12.307Z,77.72
2019-04-14T01:56:05.667Z,72.12
2019-04-14T01:58:42.537Z,73.22
2019-04-14T02:01:30.770Z,74.35
2019-04-14T02:04:04.886Z,73.15
2019-04-14T02:06:37.672Z,72.25
2019-04-14T02:09:09.714Z,70.12
2019-04-14T02:11:40.007Z,70.12
2019-04-14T02:14:10.449Z,69.55
2019-04-14T02:16:49.415Z,69.32
2019-04-14T02:19:15.341Z,66.02
2019-04-14T02:21:45.789Z,67.75
2019-04-14T02:24:16.072Z,67.97
2019-04-14T02:26:46.359Z,68.92
2019-04-14T02:29:16.871Z,71.47
2019-04-14T02:32:17.571Z,66.10
2019-04-14T02:34:50.762Z,64.10
2019-04-14T02:39:56.044Z,65.80
2019-04-14T02:44:57.152Z,62.75
2019-04-14T02:47:45.229Z,65.97
2019-04-14T02:49:56.162Z,64.80
2019-04-14T02:52:35.397Z,63.30
2019-04-14T02:55:04.246Z,63.17
2019-04-14T02:57:38.313Z,63.48
2019-04-14T03:00:07.881Z,61.77
2019-04-14T03:02:38.939Z,61.80
2019-04-14T03:05:13.297Z,60.88
2019-04-14T03:07:46.786Z,60.80
2019-04-14T03:10:22.414Z,58.87
2019-04-14T03:12:46.541Z,60.70
2019-04-14T03:15:17.078Z,59.80
2019-04-14T03:18:35.603Z,59.03
2019-04-14T03:21:30.576Z,56.88
2019-04-14T03:24:27.312Z,56.95
2019-04-14T03:27:22.393Z,57.33
2019-04-14T03:30:26.184Z,56.18
2019-04-14T03:32:58.084Z,55.20
2019-04-14T03:37:48.587Z,54.67
2019-04-14T03:39:57.241Z,53.63
2019-04-14T03:43:05.904Z,55.85
2019-04-14T03:45:42.833Z,52.98
2019-04-14T03:50:50.204Z,54.20
2019-04-14T03:53:18.857Z,53.42
2019-04-14T03:56:00.183Z,53.92
2019-04-14T03:58:27.127Z,50.55
2019-04-14T04:00:57.668Z,50.63
2019-04-14T04:03:28.957Z,50.50
2019-04-14T04:06:00.824Z,50.63
2019-04-14T04:08:33.349Z,51.00
2019-04-14T04:11:04.035Z,51.73
2019-04-14T04:13:34.580Z,49.58
2019-04-14T04:16:18.046Z,49.58
2019-04-14T04:18:57.871Z,50.17
2019-04-14T04:21:44.463Z,47.20
2019-04-14T04:24:35.011Z,47.43
2019-04-14T04:27:14.135Z,48.78
2019-04-14T04:29:52.676Z,46.95
2019-04-14T04:32:34.767Z,48.00
2019-04-14T04:35:15.607Z,47.00
2019-04-14T04:38:16.684Z,46.83
2019-04-14T04:40:46.968Z,47.20
2019-04-14T04:43:17.249Z,46.15
2019-04-14T04:45:47.562Z,45.45
2019-04-14T04:48:17.832Z,45.95
2019-04-14T04:50:48.146Z,45.12
2019-04-14T04:53:18.446Z,45.08
2019-04-14T04:55:48.722Z,44.95
2019-04-14T04:58:19.500Z,43.73
2019-04-14T05:00:52.530Z,46.00
2019-04-14T05:03:23.233Z,44.15
2019-04-14T05:06:50.611Z,43.02
2019-04-14T05:09:38.959Z,43.87
2019-04-14T05:12:41.335Z,42.40
2019-04-14T05:15:33.494Z,42.15
2019-04-14T05:18:04.943Z,42.13
2019-04-14T05:20:37.787Z,42.78
2019-04-14T05:23:08.204Z,45.10
2019-04-14T05:25:38.619Z,40.08
2019-04-14T05:28:11.162Z,40.08
2019-04-14T05:30:41.631Z,39.63
2019-04-14T05:33:12.142Z,38.35
2019-04-14T05:35:42.477Z,39.15
2019-04-14T05:38:12.744Z,39.27
2019-04-14T05:40:44.980Z,37.40
2019-04-14T05:43:27.981Z,37.65
2019-04-14T05:45:50.037Z,39.42
2019-04-14T05:48:21.431Z,39.23
2019-04-14T05:50:51.709Z,37.85
2019-04-14T05:53:22.371Z,37.53
2019-04-14T05:55:52.666Z,32.98
2019-04-14T05:58:23.246Z,36.33
2019-04-14T06:00:53.608Z,35.83
2019-04-14T06:03:27.688Z,34.80
2019-04-14T06:05:58.300Z,35.33
2019-04-14T06:08:28.572Z,38.05
2019-04-14T06:10:58.798Z,40.43
2019-04-14T06:13:29.016Z,40.45
2019-04-14T06:15:59.573Z,41.18
2019-04-14T06:18:30.999Z,39.45
2019-04-14T06:21:01.233Z,41.35
2019-04-14T06:23:31.531Z,38.65
2019-04-14T06:26:01.848Z,39.40
2019-04-14T06:28:32.510Z,42.60
2019-04-14T06:31:18.998Z,41.80
2019-04-14T06:34:09.209Z,42.20
2019-04-14T06:37:10.593Z,43.92
2019-04-14T06:39:43.787Z,26.65
2019-04-14T06:42:14.028Z,34.48
2019-04-14T06:44:44.688Z,33.05
2019-04-14T06:47:14.929Z,38.05
2019-04-14T06:49:49.169Z,40.67
2019-04-14T06:52:17.418Z,39.60
2019-04-14T06:54:47.758Z,40.88
2019-04-14T06:57:18.001Z,43.02
2019-04-14T06:59:48.341Z,62.88
2019-04-14T07:02:18.593Z,71.05
2019-04-14T07:04:48.958Z,50.58
2019-04-14T07:07:19.302Z,56.40
2019-04-14T07:09:49.611Z,57.05
2019-04-14T07:12:19.887Z,63.65
2019-04-14T07:14:51.200Z,49.25
2019-04-14T07:17:21.515Z,49.70
2019-04-14T07:20:01.345Z,47.40
2019-04-14T07:22:24.137Z,42.45
2019-04-14T07:24:54.598Z,46.28
2019-04-14T07:27:24.925Z,43.35
2019-04-14T07:30:10.894Z,47.58
2019-04-14T07:32:56.278Z,41.90
2019-04-14T07:35:51.647Z,44.50
2019-04-14T07:38:30.619Z,42.13
2019-04-14T07:41:31.867Z,43.95
2019-04-14T07:44:09.457Z,36.40
2019-04-14T07:46:58.609Z,41.15
2019-04-14T07:49:56.797Z,37.65
2019-04-14T07:52:35.880Z,36.17
2019-04-14T07:55:25.117Z,33.20
2019-04-14T07:58:15.028Z,32.48
2019-04-14T08:01:01.019Z,30.57
2019-04-14T08:03:50.198Z,28.07
2019-04-14T08:06:20.476Z,30.00
2019-04-14T08:08:50.743Z,27.75
2019-04-14T08:11:21.017Z,27.85
2019-04-14T08:13:51.288Z,26.77
2019-04-14T08:16:21.553Z,39.05
2019-04-14T08:18:51.793Z,40.03
2019-04-14T08:21:22.048Z,36.48
2019-04-14T08:23:52.268Z,30.37
2019-04-14T08:26:22.588Z,28.50
2019-04-14T08:28:52.918Z,27.50
2019-04-14T08:31:23.402Z,28.47
2019-04-14T08:33:53.676Z,27.40
2019-04-14T08:36:24.418Z,27.37
2019-04-14T08:38:54.696Z,26.25
2019-04-14T08:41:25.849Z,28.77
2019-04-14T08:44:20.018Z,45.43
2019-04-14T08:47:07.762Z,90.55
2019-04-14T08:50:01.131Z,77.75
2019-04-14T08:52:38.846Z,63.52
2019-04-14T08:55:26.697Z,59.00
2019-04-14T08:58:18.732Z,54.60
2019-04-14T09:01:00.706Z,51.95
2019-04-14T09:03:42.231Z,49.77
2019-04-14T09:06:20.019Z,44.98
2019-04-14T09:08:54.658Z,45.20
2019-04-14T09:11:32.029Z,44.23
2019-04-14T09:14:02.379Z,43.58
2019-04-14T09:16:32.673Z,41.40
2019-04-14T09:19:07.908Z,41.18
2019-04-14T09:21:34.956Z,41.02
2019-04-14T09:24:05.249Z,41.75
2019-04-14T09:26:35.553Z,40.10
2019-04-14T09:29:05.846Z,39.15
2019-04-14T09:31:34.886Z,38.58
2019-04-14T09:34:03.556Z,38.63
2019-04-14T09:36:32.284Z,39.23
2019-04-14T09:39:02.738Z,41.08
2019-04-14T09:41:33.575Z,38.90
2019-04-14T09:44:03.893Z,39.15
2019-04-14T09:46:34.159Z,39.78
2019-04-14T09:49:04.476Z,38.38
2019-04-14T09:51:34.749Z,37.63
2019-04-14T09:54:05.323Z,36.73
2019-04-14T09:56:35.781Z,36.98
2019-04-14T09:59:05.857Z,39.65
2019-04-14T10:01:37.205Z,40.75
2019-04-14T10:04:07.470Z,42.80
2019-04-14T10:06:39.547Z,43.30
2019-04-14T10:09:11.364Z,49.48
2019-04-14T10:11:48.547Z,46.68
2019-04-14T10:14:13.845Z,49.67
2019-04-14T10:16:44.129Z,55.38
2019-04-14T10:19:14.551Z,64.82
2019-04-14T10:21:44.875Z,74.47
2019-04-14T10:24:15.156Z,64.25
2019-04-14T10:26:45.601Z,69.87
2019-04-14T10:29:16.889Z,74.55
2019-04-14T10:31:47.169Z,70.62
2019-04-14T10:34:17.467Z,66.80
2019-04-14T10:36:47.771Z,65.40
2019-04-14T10:39:18.131Z,62.80
2019-04-14T10:41:48.392Z,58.83
2019-04-14T10:44:18.767Z,61.18
2019-04-14T10:46:49.075Z,59.18
2019-04-14T10:49:19.418Z,59.70
2019-04-14T10:51:49.741Z,58.70
2019-04-14T10:54:20.012Z,55.78
2019-04-14T10:56:50.442Z,57.48
2019-04-14T10:59:20.726Z,51.45
2019-04-14T11:01:51.083Z,50.40
2019-04-14T11:04:21.430Z,48.42
2019-04-14T11:06:57.670Z,44.23
2019-04-14T11:09:27.937Z,48.02
2019-04-14T11:11:58.233Z,46.88
2019-04-14T11:14:28.984Z,47.93
2019-04-14T11:16:59.233Z,46.95
2019-04-14T11:19:29.793Z,43.95
2019-04-14T11:22:00.075Z,42.58
2019-04-14T11:24:32.659Z,42.67
2019-04-14T11:27:04.487Z,40.60
2019-04-14T11:29:34.773Z,37.80
2019-04-14T11:32:32.784Z,42.35
2019-04-14T11:35:20.641Z,52.83
2019-04-14T11:38:12.647Z,68.17
2019-04-14T11:40:54.300Z,70.95
2019-04-14T11:43:24.653Z,74.92
2019-04-14T11:45:58.821Z,78.28
2019-04-14T11:48:29.338Z,76.17
2019-04-14T11:50:59.840Z,74.95
2019-04-14T11:53:30.303Z,75.35
2019-04-14T11:56:00.776Z,75.57
2019-04-14T11:58:31.298Z,72.62
2019-04-14T12:01:22.075Z,75.30
2019-04-14T12:04:13.720Z,73.10
2019-04-14T12:07:03.048Z,71.62
2019-04-14T12:09:46.164Z,69.45
2019-04-14T12:12:17.039Z,73.55
2019-04-14T12:14:48.817Z,71.07
2019-04-14T12:17:18.703Z,68.60
2019-04-14T12:19:49.083Z,72.47
2019-04-14T12:22:20.748Z,71.70
2019-04-14T12:24:51.502Z,68.83
2019-04-14T12:27:23.098Z,72.05
2019-04-14T12:29:54.468Z,70.97
2019-04-14T12:32:26.005Z,72.22
2019-04-14T12:34:56.820Z,72.17
2019-04-14T12:37:27.506Z,71.53
2019-04-14T12:39:57.692Z,67.12
2019-04-14T12:42:56.670Z,70.95
2019-04-14T12:45:57.880Z,70.05
2019-04-14T12:49:07.882Z,74.37
2019-04-14T12:52:00.500Z,77.32
2019-04-14T12:54:31.352Z,86.55
2019-04-14T12:57:02.138Z,88.65
2019-04-14T12:59:34.349Z,94.97
2019-04-14T13:02:17.649Z,96.00
2019-04-14T13:04:48.113Z,76.33
2019-04-14T13:07:19.387Z,64.90
2019-04-14T13:09:51.064Z,64.15
2019-04-14T13:12:21.591Z,67.05
2019-04-14T13:14:52.048Z,68.72
2019-04-14T13:17:22.933Z,68.80
2019-04-14T13:19:54.599Z,66.25
2019-04-14T13:22:33.776Z,66.25
2019-04-14T13:24:57.314Z,66.72
2019-04-14T13:27:28.277Z,66.65
2019-04-14T13:29:59.314Z,63.20
2019-04-14T13:32:35.907Z,64.97
2019-04-14T13:35:03.847Z,73.02
2019-04-14T13:37:34.138Z,71.17
2019-04-14T13:40:09.589Z,68.67
2019-04-14T13:42:41.395Z,71.67
2019-04-14T13:45:11.876Z,72.10
2019-04-14T13:47:42.193Z,74.40
2019-04-14T13:50:12.632Z,76.40
2019-04-14T13:52:46.925Z,77.70
2019-04-14T13:55:15.019Z,78.90
2019-04-14T13:57:45.334Z,76.12
2019-04-14T14:00:18.756Z,75.75
2019-04-14T14:02:49.090Z,79.05
2019-04-14T14:05:19.468Z,76.92
2019-04-14T14:07:49.786Z,78.83
2019-04-14T14:10:19.968Z,78.05
2019-04-14T14:12:58.284Z,81.08
2019-04-14T14:15:57.072Z,80.35
2019-04-14T14:18:34.309Z,79.30
2019-04-14T14:21:32.313Z,76.92
2019-04-14T14:24:30.630Z,79.30
2019-04-14T14:27:01.003Z,78.07
2019-04-14T14:29:31.523Z,79.55
2019-04-14T14:32:02.994Z,82.27
2019-04-14T14:34:33.316Z,78.78
2019-04-14T14:37:03.695Z,77.42
2019-04-14T14:39:34.375Z,79.80
2019-04-14T14:42:04.630Z,81.65
2019-04-14T14:44:42.901Z,78.12
2019-04-14T14:47:19.026Z,79.92
2019-04-14T14:50:20.602Z,78.83
2019-04-14T14:52:50.887Z,77.67
2019-04-14T14:55:21.268Z,79.25
2019-04-14T14:57:51.541Z,78.25
2019-04-14T15:00:28.975Z,79.15
2019-04-14T15:02:59.252Z,76.77
2019-04-14T15:05:29.538Z,76.80
2019-04-14T15:07:59.846Z,76.57
2019-04-14T15:10:30.092Z,74.50
2019-04-14T15:13:00.438Z,75.97
2019-04-14T15:15:31.388Z,73.22
2019-04-14T15:18:01.796Z,78.20
2019-04-14T15:20:32.104Z,74.82
2019-04-14T15:23:07.581Z,76.10
2019-04-14T15:25:37.859Z,73.07
2019-04-14T15:28:11.441Z,74.40
2019-04-14T15:30:41.722Z,73.52
2019-04-14T15:33:12.006Z,73.60
2019-04-14T15:35:42.284Z,73.52
2019-04-14T15:38:14.157Z,72.32
2019-04-14T15:40:44.465Z,69.55
2019-04-14T15:43:14.669Z,72.85
2019-04-14T15:45:44.993Z,73.87
2019-04-14T15:48:15.362Z,71.53
2019-04-14T15:50:46.071Z,71.97
2019-04-14T15:53:16.353Z,68.62
2019-04-14T15:55:46.730Z,69.85
2019-04-14T15:58:54.283Z,67.75
2019-04-14T16:01:42.389Z,68.02
2019-04-14T16:04:40.426Z,68.33
2019-04-14T16:07:24.262Z,65.10
2019-04-14T16:10:20.066Z,65.57
2019-04-14T16:12:58.855Z,65.90
2019-04-14T16:15:44.367Z,65.45
2019-04-14T16:18:36.986Z,62.90
2019-04-14T16:21:07.532Z,64.80
2019-04-14T16:23:49.735Z,69.37
2019-04-14T16:26:38.712Z,74.30
2019-04-14T16:29:15.164Z,76.10
2019-04-14T16:32:19.455Z,83.85
2019-04-14T16:35:01.686Z,86.47
2019-04-14T16:37:33.439Z,88.47
2019-04-14T16:40:03.839Z,89.47
2019-04-14T16:42:36.212Z,90.92
2019-04-14T16:45:07.243Z,91.87
2019-04-14T16:47:39.758Z,92.17
2019-04-14T16:50:10.677Z,92.67
2019-04-14T16:53:02.083Z,94.95
2019-04-14T16:55:54.891Z,94.75
2019-04-14T16:58:48.388Z,94.75
2019-04-14T17:01:31.353Z,94.67
2019-04-14T17:04:04.413Z,94.87
2019-04-14T17:06:36.124Z,91.02
2019-04-14T17:09:08.461Z,90.30
2019-04-14T17:11:39.384Z,94.50
2019-04-14T17:14:17.785Z,89.60
2019-04-14T17:17:22.229Z,90.77
2019-04-14T17:20:04.506Z,88.17
2019-04-14T17:23:10.542Z,87.37
2019-04-14T17:25:57.584Z,85.03
2019-04-14T17:28:45.730Z,87.30
2019-04-14T17:31:21.459Z,82.12
2019-04-14T17:34:01.944Z,83.52
2019-04-14T17:36:43.124Z,79.22
2019-04-14T17:39:32.095Z,78.67
2019-04-14T17:42:08.828Z,79.47
2019-04-14T17:44:51.067Z,77.97
2019-04-14T17:50:44.498Z,75.60
2019-04-14T17:53:37.637Z,73.83
2019-04-14T17:56:43.423Z,74.75
2019-04-14T17:59:18.705Z,72.53
2019-04-14T18:02:01.874Z,71.70
2019-04-14T18:04:58.965Z,72.58
2019-04-14T18:07:41.981Z,72.60
2019-04-14T18:10:32.925Z,71.60
2019-04-14T18:13:14.533Z,72.72
2019-04-14T18:15:57.986Z,65.55
2019-04-14T18:18:39.416Z,67.17
2019-04-14T18:21:11.689Z,64.87
2019-04-14T18:23:43.598Z,65.30
2019-04-14T18:26:14.554Z,63.58
2019-04-14T18:29:13.715Z,62.08
2019-04-14T18:32:10.247Z,62.10
2019-04-14T18:35:05.228Z,61.25
2019-04-14T18:37:52.867Z,60.88
2019-04-14T18:40:27.959Z,58.45
2019-04-14T18:43:26.691Z,56.20
2019-04-14T18:46:18.989Z,53.68
2019-04-14T18:49:08.531Z,52.88
2019-04-14T18:51:46.741Z,50.55
2019-04-14T18:54:39.581Z,52.08
2019-04-14T18:57:21.521Z,49.73
2019-04-14T19:00:10.978Z,50.90
2019-04-14T19:02:42.329Z,51.75
2019-04-14T19:05:12.828Z,53.75
2019-04-14T19:07:44.893Z,52.73
2019-04-14T19:10:15.710Z,52.78
2019-04-14T19:12:54.559Z,58.30
2019-04-14T19:15:56.022Z,64.40
2019-04-14T19:18:48.504Z,71.10
2019-04-14T19:21:21.437Z,71.60
2019-04-14T19:23:52.009Z,69.72
2019-04-14T19:26:23.464Z,69.32
2019-04-14T19:28:53.798Z,64.77
2019-04-14T19:31:24.049Z,61.58
2019-04-14T19:33:54.682Z,63.55
2019-04-14T19:36:25.277Z,63.33
2019-04-14T19:38:55.884Z,61.55
2019-04-14T19:41:26.251Z,59.80
2019-04-14T19:43:58.129Z,59.98
2019-04-14T19:46:28.619Z,58.23
2019-04-14T19:48:59.132Z,58.38
2019-04-14T19:51:29.525Z,57.40
2019-04-14T19:53:59.827Z,57.33
2019-04-14T19:56:30.121Z,55.98
2019-04-14T19:59:00.424Z,55.63
2019-04-14T20:01:30.714Z,55.20
2019-04-14T20:04:01.217Z,53.17
2019-04-14T20:06:34.148Z,50.83
2019-04-14T20:09:12.105Z,51.00
2019-04-14T20:11:42.411Z,51.60
2019-04-14T20:14:12.880Z,53.05
2019-04-14T20:16:58.460Z,51.70
2019-04-14T20:19:58.923Z,51.18
2019-04-14T20:22:58.774Z,52.00
2019-04-14T20:25:57.236Z,51.40
2019-04-14T20:28:37.940Z,53.48
2019-04-14T20:31:45.599Z,53.55
2019-04-14T20:34:15.909Z,53.75
2019-04-14T20:36:46.194Z,53.28
2019-04-14T20:39:17.137Z,51.28
2019-04-14T20:41:47.679Z,54.77
2019-04-14T20:44:18.196Z,51.08
2019-04-14T20:46:48.527Z,53.55
2019-04-14T20:49:18.808Z,54.18
2019-04-14T20:51:49.134Z,51.30
2019-04-14T20:54:19.417Z,54.67
2019-04-14T20:56:49.810Z,52.62
2019-04-14T20:59:20.108Z,53.65
2019-04-14T21:02:08.220Z,51.25
2019-04-14T21:04:50.435Z,52.35
2019-04-14T21:07:38.388Z,51.30
2019-04-14T21:10:17.860Z,51.15
2019-04-14T21:13:07.297Z,50.85
2019-04-14T21:15:45.379Z,51.50
2019-04-14T21:18:33.189Z,50.20
2019-04-14T21:21:25.226Z,47.45
2019-04-14T21:24:07.242Z,49.38
2019-04-14T21:26:51.728Z,47.55
2019-04-14T21:29:39.520Z,48.78
2019-04-14T21:32:25.014Z,46.85
2019-04-14T21:35:17.586Z,48.70
2019-04-14T21:37:57.749Z,48.00
2019-04-14T21:40:37.620Z,46.65
2019-04-14T21:43:07.983Z,46.65
2019-04-14T21:45:38.328Z,44.27
2019-04-14T21:48:08.683Z,45.80
2019-04-14T21:50:39.976Z,45.58
2019-04-14T21:53:10.301Z,47.35
2019-04-14T21:55:42.131Z,45.65
2019-04-14T21:58:37.307Z,45.17
2019-04-14T22:01:51.254Z,42.27
2019-04-14T22:04:45.572Z,43.58
2019-04-14T22:07:38.575Z,44.20
2019-04-14T22:10:23.464Z,43.45
2019-04-14T22:12:57.406Z,43.68
2019-04-14T22:15:27.984Z,42.85
2019-04-14T22:17:58.835Z,43.35
2019-04-14T22:20:29.208Z,43.87
2019-04-14T22:23:01.028Z,41.30
2019-04-14T22:25:31.649Z,40.17
2019-04-14T22:28:02.218Z,43.35
2019-04-14T22:30:32.475Z,41.55
2019-04-14T22:33:02.786Z,38.95
2019-04-14T22:35:33.335Z,39.88
2019-04-14T22:38:03.668Z,38.78
2019-04-14T22:40:33.943Z,38.65
2019-04-14T22:43:04.382Z,38.75
2019-04-14T22:45:36.048Z,39.10
2019-04-14T22:48:06.489Z,39.33
2019-04-14T22:50:38.099Z,39.15
2019-04-14T22:53:08.568Z,37.23
2019-04-14T22:55:39.061Z,38.15
2019-04-14T22:58:09.846Z,38.13
2019-04-14T23:01:04.559Z,37.42
2019-04-14T23:03:52.881Z,37.28
2019-04-14T23:06:54.421Z,37.50
2019-04-14T23:09:49.416Z,35.35
2019-04-14T23:12:27.412Z,35.30
2019-04-14T23:15:32.030Z,35.28
2019-04-14T23:18:30.628Z,35.25
2019-04-14T23:21:32.223Z,34.70
2019-04-14T23:24:27.676Z,34.30
2019-04-14T23:26:58.345Z,32.30
2019-04-14T23:29:28.879Z,35.23
2019-04-14T23:31:59.404Z,34.58
2019-04-14T23:34:30.263Z,33.63
2019-04-14T23:37:00.706Z,32.85
2019-04-14T23:39:32.547Z,32.48
2019-04-14T23:42:03.030Z,32.55
2019-04-14T23:44:34.565Z,33.30
2019-04-14T23:47:05.025Z,32.23
2019-04-14T23:49:35.564Z,31.80
2019-04-14T23:52:06.043Z,30.88
2019-04-14T23:54:36.627Z,32.48
2019-04-14T23:57:07.218Z,31.82
2019-04-14T23:59:37.947Z,30.00
